sensor_id;sensor_type;location;lat;lon;timestamp;pressure;altitude;pressure_sealevel;temperature;humidity
10638;BME280;47007;49.252;8.904;2023-01-30T00:00:10;100548.59;;;-0.50;100.00
10638;BME280;47007;49.252;8.904;2023-01-30T00:00:54;100522.47;;;-0.62;100.00
10638;BME280;47007;49.252;8.904;2023-01-30T00:01:37;100541.72;;;-0.51;100.00
10638;BME280;47007;49.252;8.904;2023-01-30T00:02:19;100533.06;;;-0.51;100.00
10638;BME280;47007;49.252;8.904;2023-01-30T00:03:01;100505.38;;;-0.66;100.00
10638;BME280;47007;49.252;8.904;2023-01-30T00:03:43;100526.19;;;-0.52;100.00
10638;BME280;47007;49.252;8.904;2023-01-30T00:04:25;100526.28;;;-0.54;100.00
10638;BME280;47007;49.252;8.904;2023-01-30T00:05:07;100522.94;;;-0.56;100.00
10638;BME280;47007;49.252;8.904;2023-01-30T00:05:49;100499.41;;;-0.68;100.00
10638;BME280;47007;49.252;8.904;2023-01-30T00:06:31;100515.03;;;-0.54;100.00
10638;BME280;47007;49.252;8.904;2023-01-30T00:07:13;100511.59;;;-0.55;100.00
10638;BME280;47007;49.252;8.904;2023-01-30T00:07:57;100505.19;;;-0.63;100.00
10638;BME280;47007;49.252;8.904;2023-01-30T00:08:42;100513.72;;;-0.61;100.00
10638;BME280;47007;49.252;8.904;2023-01-30T00:09:25;100521.34;;;-0.58;100.00
10638;BME280;47007;49.252;8.904;2023-01-30T00:10:08;100471.47;;;-0.93;100.00
10638;BME280;47007;49.252;8.904;2023-01-30T00:10:49;100518.91;;;-0.61;100.00
10638;BME280;47007;49.252;8.904;2023-01-30T00:11:31;100519.22;;;-0.66;100.00
10638;BME280;47007;49.252;8.904;2023-01-30T00:12:13;100515.59;;;-0.63;100.00
10638;BME280;47007;49.252;8.904;2023-01-30T00:12:55;100506.41;;;-0.69;100.00
10638;BME280;47007;49.252;8.904;2023-01-30T00:13:37;100507.13;;;-0.67;100.00
10638;BME280;47007;49.252;8.904;2023-01-30T00:14:19;100494.13;;;-0.81;100.00
10638;BME280;47007;49.252;8.904;2023-01-30T00:15:01;100525.09;;;-0.62;100.00
10638;BME280;47007;49.252;8.904;2023-01-30T00:15:43;100522.47;;;-0.62;100.00
10638;BME280;47007;49.252;8.904;2023-01-30T00:16:25;100532.69;;;-0.59;100.00
10638;BME280;47007;49.252;8.904;2023-01-30T00:17:06;100535.19;;;-0.58;100.00
10638;BME280;47007;49.252;8.904;2023-01-30T00:17:48;100543.94;;;-0.59;100.00
10638;BME280;47007;49.252;8.904;2023-01-30T00:18:30;100538.72;;;-0.59;100.00
10638;BME280;47007;49.252;8.904;2023-01-30T00:19:12;100546.53;;;-0.59;100.00
10638;BME280;47007;49.252;8.904;2023-01-30T00:19:53;100513.19;;;-0.81;100.00
10638;BME280;47007;49.252;8.904;2023-01-30T00:20:35;100551.84;;;-0.60;100.00
10638;BME280;47007;49.252;8.904;2023-01-30T00:21:17;100550.38;;;-0.64;100.00
10638;BME280;47007;49.252;8.904;2023-01-30T00:21:59;100537.81;;;-0.72;100.00
10638;BME280;47007;49.252;8.904;2023-01-30T00:22:41;100559.78;;;-0.62;100.00
10638;BME280;47007;49.252;8.904;2023-01-30T00:23:40;100563.09;;;-0.60;100.00
10638;BME280;47007;49.252;8.904;2023-01-30T00:24:22;100552.13;;;-0.65;100.00
10638;BME280;47007;49.252;8.904;2023-01-30T00:25:04;100569.13;;;-0.59;100.00
10638;BME280;47007;49.252;8.904;2023-01-30T00:25:46;100544.50;;;-0.68;100.00
10638;BME280;47007;49.252;8.904;2023-01-30T00:26:28;100539.66;;;-0.74;100.00
10638;BME280;47007;49.252;8.904;2023-01-30T00:27:09;100552.31;;;-0.68;100.00
10638;BME280;47007;49.252;8.904;2023-01-30T00:27:51;100563.94;;;-0.59;100.00
10638;BME280;47007;49.252;8.904;2023-01-30T00:28:33;100568.38;;;-0.61;100.00
10638;BME280;47007;49.252;8.904;2023-01-30T00:29:17;100573.41;;;-0.58;100.00
10638;BME280;47007;49.252;8.904;2023-01-30T00:29:59;100569.97;;;-0.59;100.00
10638;BME280;47007;49.252;8.904;2023-01-30T00:30:47;100543.31;;;-0.77;100.00
10638;BME280;47007;49.252;8.904;2023-01-30T00:31:30;100573.50;;;-0.60;100.00
10638;BME280;47007;49.252;8.904;2023-01-30T00:32:12;100556.97;;;-0.73;100.00
10638;BME280;47007;49.252;8.904;2023-01-30T00:32:55;100564.69;;;-0.72;100.00
10638;BME280;47007;49.252;8.904;2023-01-30T00:33:38;100573.91;;;-0.66;100.00
10638;BME280;47007;49.252;8.904;2023-01-30T00:34:20;100578.81;;;-0.61;100.00
10638;BME280;47007;49.252;8.904;2023-01-30T00:35:02;100578.00;;;-0.62;100.00
10638;BME280;47007;49.252;8.904;2023-01-30T00:35:44;100565.34;;;-0.68;100.00
10638;BME280;47007;49.252;8.904;2023-01-30T00:36:27;100568.78;;;-0.67;100.00
10638;BME280;47007;49.252;8.904;2023-01-30T00:37:09;100567.75;;;-0.65;100.00
10638;BME280;47007;49.252;8.904;2023-01-30T00:37:50;100567.09;;;-0.68;100.00
10638;BME280;47007;49.252;8.904;2023-01-30T00:38:32;100543.00;;;-0.86;100.00
10638;BME280;47007;49.252;8.904;2023-01-30T00:39:14;100535.22;;;-0.86;100.00
10638;BME280;47007;49.252;8.904;2023-01-30T00:39:55;100541.25;;;-0.86;100.00
10638;BME280;47007;49.252;8.904;2023-01-30T00:40:40;100566.34;;;-0.70;100.00
10638;BME280;47007;49.252;8.904;2023-01-30T00:41:22;100561.31;;;-0.74;100.00
10638;BME280;47007;49.252;8.904;2023-01-30T00:42:04;100558.63;;;-0.72;100.00
10638;BME280;47007;49.252;8.904;2023-01-30T00:43:04;100561.22;;;-0.72;100.00
10638;BME280;47007;49.252;8.904;2023-01-30T00:44:05;100536.88;;;-0.85;100.00
10638;BME280;47007;49.252;8.904;2023-01-30T00:45:09;100545.09;;;-0.77;100.00
10638;BME280;47007;49.252;8.904;2023-01-30T00:46:18;100516.53;;;-0.93;100.00
10638;BME280;47007;49.252;8.904;2023-01-30T00:47:22;100527.31;;;-0.85;100.00
10638;BME280;47007;49.252;8.904;2023-01-30T00:48:07;100548.97;;;-0.70;100.00
10638;BME280;47007;49.252;8.904;2023-01-30T00:48:48;100552.41;;;-0.69;100.00
10638;BME280;47007;49.252;8.904;2023-01-30T00:49:30;100557.63;;;-0.69;100.00
10638;BME280;47007;49.252;8.904;2023-01-30T00:50:13;100551.56;;;-0.70;100.00
10638;BME280;47007;49.252;8.904;2023-01-30T00:50:57;100529.66;;;-0.80;100.00
10638;BME280;47007;49.252;8.904;2023-01-30T00:51:39;100541.56;;;-0.76;100.00
10638;BME280;47007;49.252;8.904;2023-01-30T00:52:20;100561.53;;;-0.62;100.00
10638;BME280;47007;49.252;8.904;2023-01-30T00:53:02;100556.94;;;-0.59;100.00
10638;BME280;47007;49.252;8.904;2023-01-30T00:53:44;100545.69;;;-0.59;100.00
10638;BME280;47007;49.252;8.904;2023-01-30T00:54:27;100554.72;;;-0.51;100.00
10638;BME280;47007;49.252;8.904;2023-01-30T00:55:09;100541.41;;;-0.46;100.00
10638;BME280;47007;49.252;8.904;2023-01-30T00:55:52;100543.00;;;-0.44;100.00
10638;BME280;47007;49.252;8.904;2023-01-30T00:56:34;100511.84;;;-0.59;100.00
10638;BME280;47007;49.252;8.904;2023-01-30T00:57:17;100534.25;;;-0.43;100.00
10638;BME280;47007;49.252;8.904;2023-01-30T00:57:58;100507.50;;;-0.59;100.00
10638;BME280;47007;49.252;8.904;2023-01-30T00:58:40;100531.56;;;-0.41;100.00
10638;BME280;47007;49.252;8.904;2023-01-30T00:59:26;100519.75;;;-0.47;100.00
10638;BME280;47007;49.252;8.904;2023-01-30T01:00:08;100531.16;;;-0.35;100.00
10638;BME280;47007;49.252;8.904;2023-01-30T01:00:50;100514.34;;;-0.44;100.00
10638;BME280;47007;49.252;8.904;2023-01-30T01:01:32;100532.66;;;-0.31;100.00
10638;BME280;47007;49.252;8.904;2023-01-30T01:02:13;100489.63;;;-0.51;100.00
10638;BME280;47007;49.252;8.904;2023-01-30T01:02:55;100508.03;;;-0.40;100.00
10638;BME280;47007;49.252;8.904;2023-01-30T01:03:37;100526.00;;;-0.22;100.00
10638;BME280;47007;49.252;8.904;2023-01-30T01:04:19;100518.50;;;-0.27;100.00
10638;BME280;47007;49.252;8.904;2023-01-30T01:05:02;100522.28;;;-0.18;100.00
10638;BME280;47007;49.252;8.904;2023-01-30T01:05:45;100513.81;;;-0.22;100.00
10638;BME280;47007;49.252;8.904;2023-01-30T01:06:27;100522.94;;;-0.15;100.00
10638;BME280;47007;49.252;8.904;2023-01-30T01:07:11;100522.63;;;-0.10;100.00
10638;BME280;47007;49.252;8.904;2023-01-30T01:07:53;100500.88;;;-0.23;100.00
10638;BME280;47007;49.252;8.904;2023-01-30T01:08:37;100523.00;;;-0.02;100.00
10638;BME280;47007;49.252;8.904;2023-01-30T01:09:19;100525.38;;;0.01;100.00
10638;BME280;47007;49.252;8.904;2023-01-30T01:10:00;100491.91;;;-0.05;100.00
10638;BME280;47007;49.252;8.904;2023-01-30T01:10:42;100519.88;;;0.06;100.00
10638;BME280;47007;49.252;8.904;2023-01-30T01:11:24;100520.19;;;0.14;100.00
10638;BME280;47007;49.252;8.904;2023-01-30T01:12:06;100503.22;;;0.08;100.00
10638;BME280;47007;49.252;8.904;2023-01-30T01:12:49;100515.53;;;0.19;100.00
10638;BME280;47007;49.252;8.904;2023-01-30T01:13:32;100525.78;;;0.22;100.00
10638;BME280;47007;49.252;8.904;2023-01-30T01:14:14;100517.84;;;0.23;100.00
10638;BME280;47007;49.252;8.904;2023-01-30T01:14:56;100492.88;;;0.07;100.00
10638;BME280;47007;49.252;8.904;2023-01-30T01:15:38;100512.41;;;0.26;100.00
10638;BME280;47007;49.252;8.904;2023-01-30T01:16:20;100507.28;;;0.25;100.00
10638;BME280;47007;49.252;8.904;2023-01-30T01:17:02;100500.44;;;0.24;100.00
10638;BME280;47007;49.252;8.904;2023-01-30T01:17:43;100520.59;;;0.34;100.00
10638;BME280;47007;49.252;8.904;2023-01-30T01:18:25;100496.25;;;0.21;100.00
10638;BME280;47007;49.252;8.904;2023-01-30T01:19:07;100513.28;;;0.40;100.00
10638;BME280;47007;49.252;8.904;2023-01-30T01:19:49;100491.47;;;0.28;100.00
10638;BME280;47007;49.252;8.904;2023-01-30T01:20:30;100507.88;;;0.43;100.00
10638;BME280;47007;49.252;8.904;2023-01-30T01:21:12;100492.66;;;0.37;100.00
10638;BME280;47007;49.252;8.904;2023-01-30T01:21:54;100488.69;;;0.44;100.00
10638;BME280;47007;49.252;8.904;2023-01-30T01:22:35;100427.44;;;0.11;100.00
10638;BME280;47007;49.252;8.904;2023-01-30T01:23:17;100465.28;;;0.29;100.00
10638;BME280;47007;49.252;8.904;2023-01-30T01:23:59;100461.75;;;0.30;100.00
10638;BME280;47007;49.252;8.904;2023-01-30T01:24:41;100490.25;;;0.46;100.00
10638;BME280;47007;49.252;8.904;2023-01-30T01:25:24;100474.91;;;0.54;100.00
10638;BME280;47007;49.252;8.904;2023-01-30T01:26:06;100475.13;;;0.51;100.00
10638;BME280;47007;49.252;8.904;2023-01-30T01:26:48;100464.78;;;0.50;100.00
10638;BME280;47007;49.252;8.904;2023-01-30T01:27:30;100472.94;;;0.58;100.00
10638;BME280;47007;49.252;8.904;2023-01-30T01:28:11;100471.38;;;0.55;100.00
10638;BME280;47007;49.252;8.904;2023-01-30T01:28:57;100473.88;;;0.57;100.00
10638;BME280;47007;49.252;8.904;2023-01-30T01:29:39;100453.13;;;0.55;100.00
10638;BME280;47007;49.252;8.904;2023-01-30T01:30:21;100465.03;;;0.72;100.00
10638;BME280;47007;49.252;8.904;2023-01-30T01:31:10;100459.56;;;0.75;100.00
10638;BME280;47007;49.252;8.904;2023-01-30T01:31:52;100411.69;;;0.51;100.00
10638;BME280;47007;49.252;8.904;2023-01-30T01:32:36;100422.56;;;0.45;100.00
10638;BME280;47007;49.252;8.904;2023-01-30T01:33:18;100438.69;;;0.50;100.00
10638;BME280;47007;49.252;8.904;2023-01-30T01:33:59;100453.84;;;0.57;100.00
10638;BME280;47007;49.252;8.904;2023-01-30T01:34:41;100446.53;;;0.50;100.00
10638;BME280;47007;49.252;8.904;2023-01-30T01:35:23;100431.50;;;0.41;100.00
10638;BME280;47007;49.252;8.904;2023-01-30T01:36:05;100445.28;;;0.55;100.00
10638;BME280;47007;49.252;8.904;2023-01-30T01:36:48;100437.06;;;0.49;100.00
10638;BME280;47007;49.252;8.904;2023-01-30T01:37:34;100446.13;;;0.56;100.00
10638;BME280;47007;49.252;8.904;2023-01-30T01:38:16;100434.84;;;0.55;100.00
10638;BME280;47007;49.252;8.904;2023-01-30T01:38:58;100429.84;;;0.52;100.00
10638;BME280;47007;49.252;8.904;2023-01-30T01:39:39;100441.94;;;0.53;100.00
10638;BME280;47007;49.252;8.904;2023-01-30T01:40:44;100421.09;;;0.53;100.00
10638;BME280;47007;49.252;8.904;2023-01-30T01:41:48;100427.13;;;0.54;100.00
10638;BME280;47007;49.252;8.904;2023-01-30T01:42:34;100421.91;;;0.54;100.00
10638;BME280;47007;49.252;8.904;2023-01-30T01:43:21;100432.44;;;0.52;100.00
10638;BME280;47007;49.252;8.904;2023-01-30T01:44:07;100428.16;;;0.51;100.00
10638;BME280;47007;49.252;8.904;2023-01-30T01:45:44;100414.81;;;0.43;100.00
10638;BME280;47007;49.252;8.904;2023-01-30T01:46:37;100436.72;;;0.53;100.00
10638;BME280;47007;49.252;8.904;2023-01-30T01:47:20;100442.78;;;0.54;100.00
10638;BME280;47007;49.252;8.904;2023-01-30T01:48:11;100447.06;;;0.55;100.00
10638;BME280;47007;49.252;8.904;2023-01-30T01:48:58;100437.47;;;0.55;100.00
10638;BME280;47007;49.252;8.904;2023-01-30T01:49:41;100432.03;;;0.58;100.00
10638;BME280;47007;49.252;8.904;2023-01-30T01:50:35;100438.84;;;0.74;100.00
10638;BME280;47007;49.252;8.904;2023-01-30T01:51:25;100432.88;;;0.71;100.00
10638;BME280;47007;49.252;8.904;2023-01-30T01:52:12;100424.13;;;0.60;100.00
10638;BME280;47007;49.252;8.904;2023-01-30T01:52:58;100422.75;;;0.54;100.00
10638;BME280;47007;49.252;8.904;2023-01-30T01:53:46;100416.06;;;0.50;100.00
10638;BME280;47007;49.252;8.904;2023-01-30T01:55:22;100420.88;;;0.56;100.00
10638;BME280;47007;49.252;8.904;2023-01-30T01:56:06;100401.69;;;0.45;100.00
10638;BME280;47007;49.252;8.904;2023-01-30T01:56:49;100415.56;;;0.45;100.00
10638;BME280;47007;49.252;8.904;2023-01-30T01:57:35;100411.19;;;0.46;100.00
10638;BME280;47007;49.252;8.904;2023-01-30T01:59:04;100426.00;;;0.58;100.00
10638;BME280;47007;49.252;8.904;2023-01-30T01:59:29;100417.03;;;0.49;100.00
10638;BME280;47007;49.252;8.904;2023-01-30T02:00:15;100433.91;;;0.56;100.00
10638;BME280;47007;49.252;8.904;2023-01-30T02:00:58;100422.66;;;0.43;100.00
10638;BME280;47007;49.252;8.904;2023-01-30T02:01:40;100423.88;;;0.38;100.00
10638;BME280;47007;49.252;8.904;2023-01-30T02:02:22;100436.94;;;0.50;100.00
10638;BME280;47007;49.252;8.904;2023-01-30T02:03:08;100424.97;;;0.48;100.00
10638;BME280;47007;49.252;8.904;2023-01-30T02:03:56;100430.78;;;0.51;100.00
10638;BME280;47007;49.252;8.904;2023-01-30T02:04:42;100407.75;;;0.32;100.00
10638;BME280;47007;49.252;8.904;2023-01-30T02:05:47;100430.78;;;0.51;100.00
10638;BME280;47007;49.252;8.904;2023-01-30T02:06:31;100434.97;;;0.54;100.00
10638;BME280;47007;49.252;8.904;2023-01-30T02:07:15;100415.47;;;0.47;100.00
10638;BME280;47007;49.252;8.904;2023-01-30T02:08:58;100426.41;;;0.64;100.00
10638;BME280;47007;49.252;8.904;2023-01-30T02:09:41;100421.28;;;0.63;100.00
10638;BME280;47007;49.252;8.904;2023-01-30T02:10:36;100390.00;;;0.50;100.00
10638;BME280;47007;49.252;8.904;2023-01-30T02:11:46;100422.94;;;0.64;100.00
10638;BME280;47007;49.252;8.904;2023-01-30T02:12:30;100412.63;;;0.62;100.00
10638;BME280;47007;49.252;8.904;2023-01-30T02:13:11;100398.34;;;0.55;100.00
10638;BME280;47007;49.252;8.904;2023-01-30T02:13:54;100370.69;;;0.40;100.00
10638;BME280;47007;49.252;8.904;2023-01-30T02:14:37;100400.84;;;0.57;100.00
10638;BME280;47007;49.252;8.904;2023-01-30T02:15:20;100384.06;;;0.48;100.00
10638;BME280;47007;49.252;8.904;2023-01-30T02:16:04;100401.16;;;0.65;100.00
10638;BME280;47007;49.252;8.904;2023-01-30T02:16:46;100402.72;;;0.67;100.00
10638;BME280;47007;49.252;8.904;2023-01-30T02:17:28;100398.97;;;0.71;100.00
10638;BME280;47007;49.252;8.904;2023-01-30T02:18:11;100395.19;;;0.76;100.00
10638;BME280;47007;49.252;8.904;2023-01-30T02:18:54;100406.97;;;0.81;100.00
10638;BME280;47007;49.252;8.904;2023-01-30T02:19:55;100392.25;;;0.80;100.00
10638;BME280;47007;49.252;8.904;2023-01-30T02:23:13;100400.63;;;0.85;100.00
10638;BME280;47007;49.252;8.904;2023-01-30T02:31:44;100390.75;;;1.01;100.00
10638;BME280;47007;49.252;8.904;2023-01-30T02:36:40;100376.81;;;1.14;100.00
10638;BME280;47007;49.252;8.904;2023-01-30T02:37:35;100374.00;;;1.17;100.00
10638;BME280;47007;49.252;8.904;2023-01-30T02:38:44;100369.00;;;1.14;100.00
10638;BME280;47007;49.252;8.904;2023-01-30T02:39:38;100357.53;;;1.03;100.00
10638;BME280;47007;49.252;8.904;2023-01-30T02:41:34;100346.69;;;1.10;100.00
10638;BME280;47007;49.252;8.904;2023-01-30T02:44:24;100315.00;;;0.90;100.00
10638;BME280;47007;49.252;8.904;2023-01-30T02:46:20;100334.03;;;0.80;100.00
10638;BME280;47007;49.252;8.904;2023-01-30T02:47:27;100336.84;;;0.77;100.00
10638;BME280;47007;49.252;8.904;2023-01-30T02:48:11;100352.59;;;0.75;100.00
10638;BME280;47007;49.252;8.904;2023-01-30T02:49:01;100339.28;;;0.67;100.00
10638;BME280;47007;49.252;8.904;2023-01-30T02:49:52;100326.53;;;0.62;100.00
10638;BME280;47007;49.252;8.904;2023-01-30T02:50:49;100343.84;;;0.76;100.00
10638;BME280;47007;49.252;8.904;2023-01-30T02:51:36;100339.28;;;0.67;100.00
10638;BME280;47007;49.252;8.904;2023-01-30T02:52:20;100344.28;;;0.70;100.00
10638;BME280;47007;49.252;8.904;2023-01-30T02:53:06;100347.00;;;0.68;100.00
10638;BME280;47007;49.252;8.904;2023-01-30T02:53:49;100348.88;;;0.66;100.00
10638;BME280;47007;49.252;8.904;2023-01-30T02:54:31;100348.88;;;0.66;100.00
10638;BME280;47007;49.252;8.904;2023-01-30T02:55:18;100351.59;;;0.65;100.00
10638;BME280;47007;49.252;8.904;2023-01-30T02:56:01;100331.38;;;0.56;100.00
10638;BME280;47007;49.252;8.904;2023-01-30T02:56:45;100337.22;;;0.59;100.00
10638;BME280;47007;49.252;8.904;2023-01-30T02:57:27;100337.09;;;0.61;100.00
10638;BME280;47007;49.252;8.904;2023-01-30T02:58:15;100326.44;;;0.64;100.00
10638;BME280;47007;49.252;8.904;2023-01-30T02:59:01;100331.75;;;0.62;100.00
10638;BME280;47007;49.252;8.904;2023-01-30T02:59:52;100311.63;;;0.64;100.00
10638;BME280;47007;49.252;8.904;2023-01-30T03:00:52;100322.34;;;0.85;100.00
10638;BME280;47007;49.252;8.904;2023-01-30T03:03:59;100323.47;;;0.81;100.00
10638;BME280;47007;49.252;8.904;2023-01-30T03:08:37;100306.59;;;0.74;100.00
10638;BME280;47007;49.252;8.904;2023-01-30T03:09:34;100305.88;;;0.72;100.00
10638;BME280;47007;49.252;8.904;2023-01-30T03:10:48;100342.75;;;0.91;100.00
10638;BME280;47007;49.252;8.904;2023-01-30T03:12:10;100359.16;;;0.93;100.00
10638;BME280;47007;49.252;8.904;2023-01-30T03:13:09;100322.88;;;0.65;100.00
10638;BME280;47007;49.252;8.904;2023-01-30T03:14:03;100363.84;;;0.88;100.00
10638;BME280;47007;49.252;8.904;2023-01-30T03:14:53;100354.78;;;0.81;100.00
10638;BME280;47007;49.252;8.904;2023-01-30T03:16:37;100361.88;;;0.79;100.00
10638;BME280;47007;49.252;8.904;2023-01-30T03:17:20;100366.69;;;0.85;100.00
10638;BME280;47007;49.252;8.904;2023-01-30T03:18:06;100352.59;;;0.75;100.00
10638;BME280;47007;49.252;8.904;2023-01-30T03:18:49;100370.84;;;0.88;100.00
10638;BME280;47007;49.252;8.904;2023-01-30T03:19:31;100371.06;;;0.85;100.00
10638;BME280;47007;49.252;8.904;2023-01-30T03:20:17;100371.19;;;0.83;100.00
10638;BME280;47007;49.252;8.904;2023-01-30T03:21:04;100352.59;;;0.75;100.00
10638;BME280;47007;49.252;8.904;2023-01-30T03:21:46;100350.84;;;0.63;100.00
10638;BME280;47007;49.252;8.904;2023-01-30T03:22:28;100371.94;;;0.73;100.00
10638;BME280;47007;49.252;8.904;2023-01-30T03:23:10;100356.72;;;0.54;100.00
10638;BME280;47007;49.252;8.904;2023-01-30T03:23:52;100376.63;;;0.67;100.00
10638;BME280;47007;49.252;8.904;2023-01-30T03:24:34;100363.28;;;0.59;100.00
10638;BME280;47007;49.252;8.904;2023-01-30T03:25:21;100385.38;;;0.66;100.00
10638;BME280;47007;49.252;8.904;2023-01-30T03:26:05;100379.22;;;0.67;100.00
10638;BME280;47007;49.252;8.904;2023-01-30T03:27:10;100382.78;;;0.66;100.00
10638;BME280;47007;49.252;8.904;2023-01-30T03:27:53;100383.81;;;0.64;100.00
10638;BME280;47007;49.252;8.904;2023-01-30T03:28:37;100378.41;;;0.54;100.00
10638;BME280;47007;49.252;8.904;2023-01-30T03:29:19;100372.16;;;0.57;100.00
10638;BME280;47007;49.252;8.904;2023-01-30T03:30:00;100389.56;;;0.56;100.00
10638;BME280;47007;49.252;8.904;2023-01-30T03:30:43;100375.59;;;0.45;100.00
10638;BME280;47007;49.252;8.904;2023-01-30T03:31:24;100395.00;;;0.53;100.00
10638;BME280;47007;49.252;8.904;2023-01-30T03:32:06;100393.31;;;0.52;100.00
10638;BME280;47007;49.252;8.904;2023-01-30T03:32:48;100384.78;;;0.50;100.00
10638;BME280;47007;49.252;8.904;2023-01-30T03:33:30;100388.22;;;0.51;100.00
10638;BME280;47007;49.252;8.904;2023-01-30T03:34:12;100373.75;;;0.47;100.00
10638;BME280;47007;49.252;8.904;2023-01-30T03:34:54;100387.06;;;0.55;100.00
10638;BME280;47007;49.252;8.904;2023-01-30T03:35:36;100386.25;;;0.54;100.00
10638;BME280;47007;49.252;8.904;2023-01-30T03:36:18;100388.13;;;0.52;100.00
10638;BME280;47007;49.252;8.904;2023-01-30T03:37:00;100394.50;;;0.48;100.00
10638;BME280;47007;49.252;8.904;2023-01-30T03:37:43;100396.28;;;0.48;100.00
10638;BME280;47007;49.252;8.904;2023-01-30T03:38:26;100394.59;;;0.47;100.00
10638;BME280;47007;49.252;8.904;2023-01-30T03:39:08;100392.00;;;0.47;100.00
10638;BME280;47007;49.252;8.904;2023-01-30T03:39:50;100387.72;;;0.46;100.00
10638;BME280;47007;49.252;8.904;2023-01-30T03:40:32;100382.31;;;0.36;100.00
10638;BME280;47007;49.252;8.904;2023-01-30T03:41:14;100395.09;;;0.39;100.00
10638;BME280;47007;49.252;8.904;2023-01-30T03:41:55;100388.56;;;0.33;100.00
10638;BME280;47007;49.252;8.904;2023-01-30T03:42:37;100383.53;;;0.30;100.00
10638;BME280;47007;49.252;8.904;2023-01-30T03:43:19;100392.81;;;0.34;100.00
10638;BME280;47007;49.252;8.904;2023-01-30T03:44:01;100381.03;;;0.29;100.00
10638;BME280;47007;49.252;8.904;2023-01-30T03:44:42;100388.34;;;0.24;100.00
10638;BME280;47007;49.252;8.904;2023-01-30T03:45:24;100400.66;;;0.34;100.00
10638;BME280;47007;49.252;8.904;2023-01-30T03:46:06;100403.34;;;0.33;100.00
10638;BME280;47007;49.252;8.904;2023-01-30T03:46:48;100394.81;;;0.31;100.00
10638;BME280;47007;49.252;8.904;2023-01-30T03:47:30;100372.56;;;0.25;100.00
10638;BME280;47007;49.252;8.904;2023-01-30T03:48:11;100353.53;;;0.12;100.00
10638;BME280;47007;49.252;8.904;2023-01-30T03:48:53;100352.78;;;0.10;100.00
10638;BME280;47007;49.252;8.904;2023-01-30T03:49:35;100372.81;;;0.22;100.00
10638;BME280;47007;49.252;8.904;2023-01-30T03:50:17;100358.72;;;0.12;100.00
10638;BME280;47007;49.252;8.904;2023-01-30T03:50:59;100373.94;;;0.18;100.00
10638;BME280;47007;49.252;8.904;2023-01-30T03:51:41;100342.66;;;0.06;100.00
10638;BME280;47007;49.252;8.904;2023-01-30T03:52:23;100378.63;;;0.26;100.00
10638;BME280;47007;49.252;8.904;2023-01-30T03:53:04;100380.19;;;0.28;100.00
10638;BME280;47007;49.252;8.904;2023-01-30T03:53:46;100356.22;;;0.11;100.00
10638;BME280;47007;49.252;8.904;2023-01-30T03:54:28;100391.78;;;0.24;100.00
10638;BME280;47007;49.252;8.904;2023-01-30T03:55:10;100385.59;;;0.25;100.00
10638;BME280;47007;49.252;8.904;2023-01-30T03:55:52;100388.44;;;0.22;100.00
10638;BME280;47007;49.252;8.904;2023-01-30T03:56:38;100396.16;;;0.24;100.00
10638;BME280;47007;49.252;8.904;2023-01-30T03:57:21;100387.50;;;0.23;100.00
10638;BME280;47007;49.252;8.904;2023-01-30T03:58:02;100289.84;;;-0.49;100.00
10638;BME280;47007;49.252;8.904;2023-01-30T03:58:46;100397.19;;;0.21;100.00
10638;BME280;47007;49.252;8.904;2023-01-30T03:59:34;100374.88;;;0.17;100.00
10638;BME280;47007;49.252;8.904;2023-01-30T04:00:21;100382.50;;;0.20;100.00
10638;BME280;47007;49.252;8.904;2023-01-30T04:01:04;100385.09;;;0.20;100.00
10638;BME280;47007;49.252;8.904;2023-01-30T04:01:46;100389.28;;;0.23;100.00
10638;BME280;47007;49.252;8.904;2023-01-30T04:02:28;100384.66;;;0.14;100.00
10638;BME280;47007;49.252;8.904;2023-01-30T04:03:12;100391.44;;;0.16;100.00
10638;BME280;47007;49.252;8.904;2023-01-30T04:03:53;100374.88;;;0.05;100.00
10638;BME280;47007;49.252;8.904;2023-01-30T04:04:35;100378.84;;;0.10;100.00
10638;BME280;47007;49.252;8.904;2023-01-30T04:05:19;100380.50;;;0.11;100.00
10638;BME280;47007;49.252;8.904;2023-01-30T04:06:08;100373.84;;;0.07;100.00
10638;BME280;47007;49.252;8.904;2023-01-30T04:06:50;100383.13;;;0.11;100.00
10638;BME280;47007;49.252;8.904;2023-01-30T04:07:32;100351.41;;;-0.08;100.00
10638;BME280;47007;49.252;8.904;2023-01-30T04:08:14;100379.97;;;0.06;100.00
10638;BME280;47007;49.252;8.904;2023-01-30T04:08:56;100349.63;;;-0.08;100.00
10638;BME280;47007;49.252;8.904;2023-01-30T04:10:07;100348.69;;;-0.07;100.00
10638;BME280;47007;49.252;8.904;2023-01-30T04:10:50;100367.16;;;0.03;100.00
10638;BME280;47007;49.252;8.904;2023-01-30T04:11:32;100357.34;;;-0.06;100.00
10638;BME280;47007;49.252;8.904;2023-01-30T04:12:13;100354.94;;;-0.09;100.00
10638;BME280;47007;49.252;8.904;2023-01-30T04:13:03;100338.25;;;-0.19;100.00
10638;BME280;47007;49.252;8.904;2023-01-30T04:13:46;100377.47;;;0.05;100.00
10638;BME280;47007;49.252;8.904;2023-01-30T04:14:28;100371.53;;;0.03;100.00
10638;BME280;47007;49.252;8.904;2023-01-30T04:15:34;100376.34;;;0.09;100.00
10638;BME280;47007;49.252;8.904;2023-01-30T04:16:47;100370.94;;;0.12;100.00
10638;BME280;47007;49.252;8.904;2023-01-30T04:18:07;100350.47;;;-0.07;100.00
10638;BME280;47007;49.252;8.904;2023-01-30T04:19:04;100378.22;;;0.07;100.00
10638;BME280;47007;49.252;8.904;2023-01-30T04:19:47;100364.97;;;-0.03;100.00
10638;BME280;47007;49.252;8.904;2023-01-30T04:20:28;100370.69;;;0.02;100.00
10638;BME280;47007;49.252;8.904;2023-01-30T04:21:11;100395.22;;;0.12;100.00
10638;BME280;47007;49.252;8.904;2023-01-30T04:21:53;100396.25;;;0.10;100.00
10638;BME280;47007;49.252;8.904;2023-01-30T04:22:35;100382.03;;;0.01;100.00
10638;BME280;47007;49.252;8.904;2023-01-30T04:23:17;100401.56;;;0.08;100.00
10638;BME280;47007;49.252;8.904;2023-01-30T04:23:59;100408.66;;;0.06;100.00